createdAt,value
2018-06-30T00:00:07.744Z,73.6
2018-06-30T00:01:08.415Z,73.3
2018-06-30T00:02:09.087Z,73.0
2018-06-30T00:03:09.756Z,73.1
2018-06-30T00:04:10.430Z,73.1
2018-06-30T00:05:11.195Z,73.4
2018-06-30T00:06:11.865Z,73.0
2018-06-30T00:07:12.535Z,73.1
2018-06-30T00:08:13.204Z,73.2
2018-06-30T00:09:13.925Z,73.2
2018-06-30T00:10:14.596Z,73.3
2018-06-30T00:11:15.268Z,73.2
2018-06-30T00:12:15.939Z,73.2
2018-06-30T00:13:16.610Z,72.9
2018-06-30T00:14:17.332Z,73.2
2018-06-30T00:15:18.003Z,73.2
2018-06-30T00:16:18.721Z,73.2
2018-06-30T00:17:19.392Z,73.2
2018-06-30T00:18:20.112Z,73.2
2018-06-30T00:19:20.781Z,73.5
2018-06-30T00:20:21.500Z,73.2
2018-06-30T00:21:22.169Z,73.3
2018-06-30T00:22:22.838Z,73.3
2018-06-30T00:23:23.509Z,73.5
2018-06-30T00:24:24.228Z,73.0
2018-06-30T00:25:24.899Z,73.6
2018-06-30T00:26:25.570Z,73.7
2018-06-30T00:27:26.292Z,73.6
2018-06-30T00:28:26.961Z,73.8
2018-06-30T00:29:27.631Z,74.0
2018-06-30T00:30:28.352Z,74.0
2018-06-30T00:31:29.023Z,74.0
2018-06-30T00:32:29.741Z,74.2
2018-06-30T00:33:30.462Z,74.3
2018-06-30T00:34:31.130Z,74.5
2018-06-30T00:35:31.799Z,74.2
2018-06-30T00:36:32.470Z,74.3
2018-06-30T00:37:33.187Z,74.0
2018-06-30T00:38:33.909Z,73.9
2018-06-30T00:39:34.578Z,74.4
2018-06-30T00:40:35.247Z,74.7
2018-06-30T00:41:35.917Z,74.7
2018-06-30T00:42:36.587Z,74.7
2018-06-30T00:43:37.306Z,74.6
2018-06-30T00:44:37.976Z,74.9
2018-06-30T00:45:38.646Z,75.1
2018-06-30T00:46:39.316Z,75.3
2018-06-30T00:47:40.036Z,75.1
2018-06-30T00:48:40.837Z,75.0
2018-06-30T00:49:41.373Z,75.4
2018-06-30T00:50:42.042Z,75.6
2018-06-30T00:51:42.761Z,75.7
2018-06-30T00:52:43.430Z,75.6
2018-06-30T00:53:44.099Z,75.7
2018-06-30T00:54:44.769Z,75.3
2018-06-30T00:55:45.438Z,75.4
2018-06-30T00:56:46.157Z,75.7
2018-06-30T00:57:46.877Z,75.8
2018-06-30T00:58:47.547Z,76.3
2018-06-30T00:59:48.218Z,76.0
2018-06-30T01:00:48.888Z,76.3
2018-06-30T01:01:49.558Z,76.4
2018-06-30T01:02:50.280Z,76.4
2018-06-30T01:03:50.996Z,76.4
2018-06-30T01:04:51.716Z,76.2
2018-06-30T01:05:52.386Z,76.2
2018-06-30T01:06:53.054Z,76.8
2018-06-30T01:07:53.723Z,77.0
2018-06-30T01:08:54.393Z,77.0
2018-06-30T01:09:55.112Z,76.7
2018-06-30T01:10:55.782Z,76.7
2018-06-30T01:11:56.451Z,76.8
2018-06-30T01:12:57.124Z,77.0
2018-06-30T01:13:57.796Z,76.9
2018-06-30T01:14:58.514Z,77.0
2018-06-30T01:15:59.234Z,76.9
2018-06-30T01:16:59.903Z,77.0
2018-06-30T01:18:00.573Z,77.2
2018-06-30T01:19:01.244Z,77.1
2018-06-30T01:20:01.914Z,77.0
2018-06-30T01:21:02.636Z,77.8
2018-06-30T01:22:03.304Z,77.6
2018-06-30T01:23:04.023Z,77.3
2018-06-30T01:24:04.692Z,77.3
2018-06-30T01:25:05.360Z,77.3
2018-06-30T01:26:06.129Z,77.0
2018-06-30T01:27:06.798Z,77.1
2018-06-30T01:28:07.466Z,77.0
2018-06-30T01:29:08.188Z,77.0
2018-06-30T01:30:08.858Z,77.1
2018-06-30T01:31:09.576Z,77.2
2018-06-30T01:32:10.244Z,77.2
2018-06-30T01:33:10.964Z,77.0
2018-06-30T01:34:11.631Z,77.2
2018-06-30T01:35:12.299Z,77.2
2018-06-30T01:36:12.974Z,77.6
2018-06-30T01:37:13.638Z,77.9
2018-06-30T01:38:14.355Z,77.8
2018-06-30T01:39:15.024Z,77.7
2018-06-30T01:40:15.693Z,77.3
2018-06-30T01:41:16.362Z,77.2
2018-06-30T01:42:17.030Z,77.4
2018-06-30T01:43:17.754Z,77.2
2018-06-30T01:44:18.419Z,77.4
2018-06-30T01:45:19.140Z,77.2
2018-06-30T01:46:19.810Z,77.2
2018-06-30T01:47:20.531Z,77.8
2018-06-30T01:48:21.199Z,77.9
2018-06-30T01:49:21.919Z,77.8
2018-06-30T01:50:22.587Z,77.9
2018-06-30T01:51:23.357Z,77.8
2018-06-30T01:52:24.028Z,77.6
2018-06-30T01:53:24.701Z,77.7
2018-06-30T01:54:25.368Z,77.9
2018-06-30T01:55:26.039Z,77.6
2018-06-30T01:56:26.762Z,77.9
2018-06-30T01:57:27.476Z,78.1
2018-06-30T01:58:28.146Z,78.0
2018-06-30T01:59:28.867Z,77.9
2018-06-30T02:00:29.535Z,77.6
2018-06-30T02:01:30.205Z,77.6
2018-06-30T02:02:30.873Z,77.0
2018-06-30T02:03:31.542Z,76.8
2018-06-30T02:04:32.260Z,76.8
2018-06-30T02:05:32.929Z,77.0
2018-06-30T02:06:33.599Z,77.2
2018-06-30T02:07:34.268Z,77.5
2018-06-30T02:08:34.937Z,77.2
2018-06-30T02:09:35.707Z,77.3
2018-06-30T02:10:36.375Z,77.1
2018-06-30T02:11:37.091Z,77.1
2018-06-30T02:12:37.714Z,77.3
2018-06-30T02:13:38.388Z,77.2
2018-06-30T02:14:39.102Z,77.2
2018-06-30T02:15:39.772Z,76.9
2018-06-30T02:16:40.442Z,76.9
2018-06-30T02:17:41.211Z,77.3
2018-06-30T02:18:41.879Z,77.3
2018-06-30T02:19:42.548Z,77.2
2018-06-30T02:20:43.266Z,77.2
2018-06-30T02:21:44.016Z,77.5
2018-06-30T02:22:44.656Z,77.2
2018-06-30T02:23:45.327Z,77.3
2018-06-30T02:24:45.997Z,77.8
2018-06-30T02:25:46.666Z,77.9
2018-06-30T02:26:47.434Z,77.7
2018-06-30T02:27:48.102Z,77.6
2018-06-30T02:28:48.772Z,77.7
2018-06-30T02:29:49.492Z,77.9
2018-06-30T02:30:50.161Z,78.1
2018-06-30T02:31:50.830Z,78.6
2018-06-30T02:32:51.500Z,78.6
2018-06-30T02:33:52.168Z,78.2
2018-06-30T02:34:52.887Z,78.4
2018-06-30T02:35:53.556Z,78.9
2018-06-30T02:36:54.227Z,79.0
2018-06-30T02:37:54.950Z,79.0
2018-06-30T02:38:55.624Z,79.1
2018-06-30T02:39:56.290Z,79.3
2018-06-30T02:40:57.009Z,79.9
2018-06-30T02:41:57.729Z,79.7
2018-06-30T02:42:58.401Z,79.6
2018-06-30T02:43:59.117Z,80.1
2018-06-30T02:44:59.838Z,79.8
2018-06-30T02:46:00.584Z,79.7
2018-06-30T02:47:01.186Z,79.8
2018-06-30T02:48:01.852Z,79.8
2018-06-30T02:49:02.523Z,79.7
2018-06-30T02:50:03.191Z,80.3
2018-06-30T02:51:03.861Z,80.1
2018-06-30T02:52:04.531Z,80.2
2018-06-30T02:53:05.200Z,80.4
2018-06-30T02:54:05.918Z,80.4
2018-06-30T02:55:06.590Z,80.4
2018-06-30T02:56:07.259Z,80.0
2018-06-30T02:57:07.936Z,80.3
2018-06-30T02:58:08.661Z,80.5
2018-06-30T02:59:09.365Z,80.4
2018-06-30T03:00:10.037Z,80.5
2018-06-30T03:01:10.707Z,80.6
2018-06-30T03:02:11.435Z,80.7
2018-06-30T03:03:12.101Z,81.1
2018-06-30T03:04:12.771Z,81.1
2018-06-30T03:05:13.493Z,80.9
2018-06-30T03:06:14.164Z,81.0
2018-06-30T03:07:14.837Z,80.7
2018-06-30T03:08:15.554Z,80.8
2018-06-30T03:09:16.278Z,80.8
2018-06-30T03:10:16.946Z,81.0
2018-06-30T03:11:17.616Z,80.8
2018-06-30T03:12:18.287Z,80.9
2018-06-30T03:13:19.007Z,81.0
2018-06-30T03:14:19.683Z,80.7
2018-06-30T03:15:20.351Z,80.9
2018-06-30T03:16:21.022Z,81.1
2018-06-30T03:17:21.693Z,80.8
2018-06-30T03:18:22.415Z,81.0
2018-06-30T03:19:23.088Z,80.8
2018-06-30T03:20:23.759Z,80.9
2018-06-30T03:21:24.429Z,81.1
2018-06-30T03:22:25.101Z,80.5
2018-06-30T03:23:25.771Z,80.6
2018-06-30T03:24:26.494Z,80.3
2018-06-30T03:25:27.165Z,80.4
2018-06-30T03:26:27.837Z,79.7
2018-06-30T03:27:28.508Z,79.5
2018-06-30T03:28:29.231Z,79.5
2018-06-30T03:29:29.902Z,79.2
2018-06-30T03:30:30.573Z,79.5
2018-06-30T03:31:31.390Z,79.6
2018-06-30T03:32:31.972Z,79.3
2018-06-30T03:33:32.641Z,79.1
2018-06-30T03:34:33.315Z,79.2
2018-06-30T03:35:33.986Z,78.7
2018-06-30T03:36:34.712Z,78.6
2018-06-30T03:37:35.381Z,78.4
2018-06-30T03:38:36.058Z,78.4
2018-06-30T03:39:36.776Z,78.0
2018-06-30T03:40:37.498Z,77.7
2018-06-30T03:41:38.172Z,78.0
2018-06-30T03:42:38.842Z,77.6
2018-06-30T03:43:39.514Z,77.7
2018-06-30T03:44:40.185Z,77.1
2018-06-30T03:45:40.908Z,77.2
2018-06-30T03:46:41.580Z,77.1
2018-06-30T03:47:42.297Z,76.7
2018-06-30T03:48:42.969Z,77.0
2018-06-30T03:49:43.643Z,77.0
2018-06-30T03:50:44.367Z,76.9
2018-06-30T03:51:45.043Z,77.0
2018-06-30T03:52:45.714Z,77.1
2018-06-30T03:53:46.386Z,77.2
2018-06-30T03:54:47.064Z,77.4
2018-06-30T03:55:47.781Z,77.1
2018-06-30T03:56:48.456Z,77.1
2018-06-30T03:57:49.128Z,77.0
2018-06-30T03:58:49.800Z,77.1
2018-06-30T03:59:50.475Z,76.7
2018-06-30T04:00:51.198Z,76.8
2018-06-30T04:01:51.921Z,76.9
2018-06-30T04:02:52.644Z,76.3
2018-06-30T04:03:53.317Z,76.0
2018-06-30T04:04:53.991Z,76.7
2018-06-30T04:05:54.664Z,76.2
2018-06-30T04:06:55.337Z,76.3
2018-06-30T04:07:56.060Z,76.4
2018-06-30T04:08:56.784Z,76.3
2018-06-30T04:09:57.508Z,76.1
2018-06-30T04:10:58.181Z,75.7
2018-06-30T04:11:58.852Z,75.9
2018-06-30T04:12:59.528Z,75.7
2018-06-30T04:14:00.253Z,75.4
2018-06-30T04:15:00.926Z,75.2
2018-06-30T04:16:01.601Z,75.6
2018-06-30T04:17:02.274Z,75.1
2018-06-30T04:18:02.998Z,74.9
2018-06-30T04:19:03.671Z,74.9
2018-06-30T04:20:04.444Z,74.7
2018-06-30T04:21:05.165Z,74.6
2018-06-30T04:22:05.871Z,73.8
2018-06-30T04:23:06.550Z,74.0
2018-06-30T04:24:07.224Z,74.3
2018-06-30T04:25:07.897Z,73.6
2018-06-30T04:26:08.619Z,73.4
2018-06-30T04:27:09.293Z,74.0
2018-06-30T04:28:09.968Z,73.6
2018-06-30T04:29:10.639Z,73.1
2018-06-30T04:30:11.311Z,72.9
2018-06-30T04:31:12.033Z,73.0
2018-06-30T04:32:12.706Z,72.9
2018-06-30T04:33:13.429Z,72.8
2018-06-30T04:34:14.155Z,72.9
2018-06-30T04:35:14.827Z,72.5
2018-06-30T04:36:15.545Z,72.8
2018-06-30T04:37:16.219Z,72.5
2018-06-30T04:38:16.892Z,72.7
2018-06-30T04:39:17.615Z,72.3
2018-06-30T04:40:18.288Z,71.6
2018-06-30T04:41:18.960Z,72.0
2018-06-30T04:42:19.635Z,72.1
2018-06-30T04:43:20.354Z,71.3
2018-06-30T04:44:21.028Z,71.6
2018-06-30T04:45:21.752Z,71.3
2018-06-30T04:46:22.427Z,71.3
2018-06-30T04:47:23.101Z,71.0
2018-06-30T04:48:23.824Z,70.3
2018-06-30T04:49:24.552Z,70.6
2018-06-30T04:50:25.224Z,70.4
2018-06-30T04:51:25.899Z,69.6
2018-06-30T04:52:26.572Z,69.5
2018-06-30T04:53:27.247Z,69.7
2018-06-30T04:54:27.920Z,69.7
2018-06-30T04:55:28.644Z,69.3
2018-06-30T04:56:29.369Z,69.2
2018-06-30T04:57:30.079Z,68.7
2018-06-30T04:58:30.716Z,68.7
2018-06-30T04:59:31.388Z,68.4
2018-06-30T05:00:32.163Z,68.5
2018-06-30T05:01:32.842Z,68.7
2018-06-30T05:02:33.510Z,68.3
2018-06-30T05:03:34.234Z,67.9
2018-06-30T05:04:34.908Z,68.0
2018-06-30T05:05:35.583Z,67.9
2018-06-30T05:06:36.309Z,67.8
2018-06-30T05:07:36.983Z,67.6
2018-06-30T05:08:37.659Z,67.7
2018-06-30T05:09:38.332Z,67.4
2018-06-30T05:10:39.056Z,67.4
2018-06-30T05:11:39.729Z,67.1
2018-06-30T05:12:40.403Z,66.9
2018-06-30T05:13:41.082Z,67.4
2018-06-30T05:14:41.751Z,67.5
2018-06-30T05:15:42.475Z,67.6
2018-06-30T05:16:43.249Z,67.7
2018-06-30T05:17:43.923Z,67.9
2018-06-30T05:18:44.599Z,68.3
2018-06-30T05:19:45.270Z,68.3
2018-06-30T05:20:45.943Z,68.4
2018-06-30T05:21:46.668Z,69.0
2018-06-30T05:22:47.388Z,68.8
2018-06-30T05:23:48.061Z,69.1
2018-06-30T05:24:48.735Z,69.1
2018-06-30T05:25:49.421Z,69.7
2018-06-30T05:26:50.174Z,69.1
2018-06-30T05:27:50.849Z,69.4
2018-06-30T05:28:51.525Z,69.4
2018-06-30T05:29:52.246Z,69.8
2018-06-30T05:30:52.919Z,69.9
2018-06-30T05:31:53.594Z,69.6
2018-06-30T05:32:54.318Z,70.2
2018-06-30T05:33:55.093Z,70.1
2018-06-30T05:34:55.767Z,70.2
2018-06-30T05:35:56.493Z,70.3
2018-06-30T05:36:57.170Z,70.6
2018-06-30T05:37:57.842Z,70.4
2018-06-30T05:38:58.515Z,70.6
2018-06-30T05:39:59.189Z,70.3
2018-06-30T05:40:59.913Z,69.8
2018-06-30T05:42:00.637Z,69.6
2018-06-30T05:43:01.361Z,69.3
2018-06-30T05:44:02.037Z,69.2
2018-06-30T05:45:02.761Z,68.8
2018-06-30T05:46:03.436Z,68.7
2018-06-30T05:47:04.111Z,67.9
2018-06-30T05:48:04.836Z,67.9
2018-06-30T05:49:05.508Z,67.7
2018-06-30T05:50:06.183Z,67.6
2018-06-30T05:51:06.907Z,67.0
2018-06-30T05:52:07.581Z,67.0
2018-06-30T05:53:08.450Z,66.3
2018-06-30T05:54:08.929Z,66.5
2018-06-30T05:55:09.653Z,66.3
2018-06-30T05:56:10.329Z,65.7
2018-06-30T05:57:11.053Z,65.3
2018-06-30T05:58:11.729Z,65.0
2018-06-30T05:59:12.454Z,64.9
2018-06-30T06:00:13.128Z,64.2
2018-06-30T06:01:13.854Z,63.6
2018-06-30T06:02:14.575Z,63.8
2018-06-30T06:03:15.251Z,62.9
2018-06-30T06:04:15.924Z,63.2
2018-06-30T06:05:16.657Z,63.1
2018-06-30T06:06:17.337Z,63.3
2018-06-30T06:07:18.057Z,63.6
2018-06-30T06:08:18.730Z,63.3
2018-06-30T06:09:19.405Z,63.1
2018-06-30T06:10:20.140Z,62.9
2018-06-30T06:11:20.809Z,62.8
2018-06-30T06:12:21.582Z,62.6
2018-06-30T06:13:22.260Z,62.4
2018-06-30T06:14:22.936Z,62.0
2018-06-30T06:15:23.737Z,61.6
2018-06-30T06:16:24.332Z,61.3
2018-06-30T06:17:25.058Z,60.2
2018-06-30T06:18:25.786Z,59.9
2018-06-30T06:19:26.560Z,59.0
2018-06-30T06:20:27.285Z,57.4
2018-06-30T06:21:28.014Z,56.8
2018-06-30T06:22:28.690Z,54.0
2018-06-30T06:23:29.369Z,51.1
2018-06-30T06:24:30.098Z,48.4
2018-06-30T06:25:30.777Z,46.0
2018-06-30T06:26:31.505Z,43.7
2018-06-30T06:27:32.203Z,41.4
2018-06-30T06:28:32.962Z,38.8
2018-06-30T06:29:33.640Z,37.7
2018-06-30T06:30:34.319Z,35.5
2018-06-30T06:31:34.997Z,34.4
2018-06-30T06:32:35.808Z,33.7
2018-06-30T06:33:36.451Z,32.4
2018-06-30T06:34:37.133Z,31.7
2018-06-30T06:35:37.815Z,31.1
2018-06-30T06:36:38.545Z,30.3
2018-06-30T06:37:39.276Z,28.7
2018-06-30T06:38:39.958Z,28.1
2018-06-30T06:39:40.641Z,27.1
2018-06-30T06:40:41.374Z,27.3
2018-06-30T06:41:42.120Z,27.5
2018-06-30T06:42:42.783Z,27.8
2018-06-30T06:43:43.465Z,28.0
2018-06-30T06:44:44.147Z,29.2
2018-06-30T06:45:44.930Z,28.7
2018-06-30T06:46:45.660Z,28.7
2018-06-30T06:47:46.344Z,28.2
2018-06-30T06:48:47.029Z,27.5
2018-06-30T06:49:47.759Z,27.2
2018-06-30T06:50:48.541Z,26.1
2018-06-30T06:51:49.223Z,25.5
2018-06-30T06:52:49.907Z,24.7
2018-06-30T06:53:50.591Z,24.4
2018-06-30T06:54:51.323Z,24.3
2018-06-30T06:55:52.056Z,23.8
2018-06-30T06:58:08.306Z,22.4
2018-06-30T06:59:08.989Z,21.4
2018-06-30T07:00:09.673Z,20.8
2018-06-30T07:01:10.357Z,20.2
2018-06-30T07:02:11.039Z,20.0
2018-06-30T07:03:11.822Z,20.0
2018-06-30T07:04:12.456Z,19.8
2018-06-30T07:05:13.141Z,19.9
2018-06-30T07:06:13.827Z,18.9
2018-06-30T07:07:14.508Z,18.9
2018-06-30T07:08:15.192Z,18.2
2018-06-30T07:09:15.929Z,17.7
2018-06-30T07:10:16.614Z,17.6
2018-06-30T07:11:17.342Z,17.9
2018-06-30T07:12:18.026Z,17.1
2018-06-30T07:13:18.760Z,17.1
2018-06-30T07:14:19.539Z,17.1
2018-06-30T07:15:20.222Z,16.5
2018-06-30T07:16:20.955Z,16.4
2018-06-30T07:17:21.641Z,15.3
2018-06-30T07:18:22.324Z,15.3
2018-06-30T07:19:23.012Z,15.5
2018-06-30T07:20:23.747Z,15.1
2018-06-30T07:21:24.433Z,15.0
2018-06-30T07:22:25.168Z,14.9
2018-06-30T07:23:25.854Z,14.7
2018-06-30T07:24:26.587Z,14.7
2018-06-30T07:25:27.290Z,14.7
2018-06-30T07:26:27.956Z,14.2
2018-06-30T07:27:28.640Z,14.1
2018-06-30T07:28:29.375Z,13.4
2018-06-30T07:29:30.062Z,13.0
2018-06-30T07:30:30.745Z,13.1
2018-06-30T07:31:31.429Z,13.2
2018-06-30T07:32:32.114Z,12.9
2018-06-30T07:33:32.848Z,12.8
2018-06-30T07:34:33.535Z,12.9
2018-06-30T07:35:34.265Z,12.9
2018-06-30T07:36:34.950Z,13.2
2018-06-30T07:37:35.733Z,12.8
2018-06-30T07:38:36.370Z,12.6
2018-06-30T07:39:37.056Z,12.2
2018-06-30T07:40:37.738Z,12.4
2018-06-30T07:41:38.424Z,12.1
2018-06-30T07:42:39.158Z,12.1
2018-06-30T07:43:39.844Z,12.1
2018-06-30T07:44:40.528Z,11.8
2018-06-30T07:45:41.223Z,11.8
2018-06-30T07:46:41.900Z,12.2
2018-06-30T07:47:42.681Z,12.8
2018-06-30T07:48:43.365Z,12.8
2018-06-30T07:49:44.101Z,13.2
2018-06-30T07:50:44.784Z,13.2
2018-06-30T07:51:45.518Z,13.0
2018-06-30T07:52:46.207Z,13.3
2018-06-30T07:53:46.987Z,13.8
2018-06-30T07:54:47.670Z,13.9
2018-06-30T07:55:48.356Z,13.7
2018-06-30T07:56:49.089Z,13.3
2018-06-30T07:57:49.771Z,12.9
2018-06-30T07:58:50.455Z,12.6
2018-06-30T07:59:51.138Z,12.6
2018-06-30T08:00:51.872Z,12.1
2018-06-30T08:01:52.554Z,11.7
2018-06-30T08:02:53.237Z,11.8
2018-06-30T08:03:53.921Z,11.6
2018-06-30T08:04:54.651Z,11.2
2018-06-30T08:05:55.389Z,11.6
2018-06-30T08:06:56.074Z,11.2
2018-06-30T08:07:56.805Z,10.9
2018-06-30T08:08:57.489Z,10.5
2018-06-30T08:09:58.174Z,10.5
2018-06-30T08:10:58.907Z,10.7
2018-06-30T08:11:59.593Z,11.4
2018-06-30T08:13:00.320Z,11.0
2018-06-30T08:14:01.045Z,10.4
2018-06-30T08:15:01.736Z,10.6
2018-06-30T08:16:02.468Z,10.6
2018-06-30T08:17:03.150Z,10.1
2018-06-30T08:18:03.833Z,10.2
2018-06-30T08:19:04.515Z,10.4
2018-06-30T08:20:05.252Z,10.4
2018-06-30T08:21:05.954Z,10.5
2018-06-30T08:22:06.616Z,10.6
2018-06-30T08:23:07.347Z,10.6
2018-06-30T08:24:08.027Z,10.5
2018-06-30T08:25:08.760Z,10.5
2018-06-30T08:26:09.442Z,10.2
2018-06-30T08:27:10.124Z,10.5
2018-06-30T08:28:10.807Z,10.7
2018-06-30T08:29:11.489Z,10.4
2018-06-30T08:30:12.171Z,10.0
2018-06-30T08:31:12.855Z,10.3
2018-06-30T08:32:13.538Z,10.4
2018-06-30T08:33:14.269Z,10.5
2018-06-30T08:34:14.951Z,10.4
2018-06-30T08:35:15.632Z,10.0
2018-06-30T08:36:16.382Z,9.8
2018-06-30T08:37:17.093Z,9.6
2018-06-30T08:38:17.774Z,9.6
2018-06-30T08:39:18.453Z,9.4
2018-06-30T08:40:19.184Z,9.8
2018-06-30T08:41:19.864Z,9.8
2018-06-30T08:42:20.549Z,9.9
2018-06-30T08:43:21.273Z,9.7
2018-06-30T08:44:21.955Z,9.9
2018-06-30T08:45:22.735Z,9.5
2018-06-30T08:46:23.415Z,10.2
2018-06-30T08:47:24.144Z,10.4
2018-06-30T08:48:24.825Z,10.2
2018-06-30T08:49:25.510Z,10.3
2018-06-30T08:50:26.190Z,9.8
2018-06-30T08:51:26.870Z,9.7
2018-06-30T08:52:27.649Z,9.7
2018-06-30T08:53:28.328Z,9.4
2018-06-30T08:54:29.010Z,9.9
2018-06-30T08:55:29.777Z,10.2
2018-06-30T08:56:30.424Z,9.4
2018-06-30T08:57:31.104Z,8.9
2018-06-30T08:58:31.789Z,8.7
2018-06-30T08:59:32.467Z,9.0
2018-06-30T09:00:33.198Z,8.7
2018-06-30T09:01:33.876Z,9.1
2018-06-30T09:02:34.555Z,9.1
2018-06-30T09:03:35.249Z,8.8
2018-06-30T09:04:35.974Z,9.2
2018-06-30T09:05:36.653Z,8.8
2018-06-30T09:06:37.341Z,9.2
2018-06-30T09:07:38.014Z,9.6
2018-06-30T09:08:38.693Z,9.6
2018-06-30T09:09:39.374Z,9.3
2018-06-30T09:10:40.066Z,9.3
2018-06-30T09:11:40.776Z,9.1
2018-06-30T09:12:41.453Z,8.7
2018-06-30T09:13:42.187Z,8.8
2018-06-30T09:14:42.868Z,8.7
2018-06-30T09:15:43.549Z,9.2
2018-06-30T09:16:44.231Z,9.1
2018-06-30T09:17:44.912Z,9.2
2018-06-30T09:18:45.641Z,8.9
2018-06-30T09:19:46.323Z,9.3
2018-06-30T09:20:47.053Z,9.8
2018-06-30T09:21:47.734Z,9.1
2018-06-30T09:22:48.465Z,9.7
2018-06-30T09:23:49.144Z,9.9
2018-06-30T09:24:49.827Z,10.2
2018-06-30T09:25:50.562Z,10.1
2018-06-30T09:26:51.242Z,10.2
2018-06-30T09:27:51.973Z,10.3
2018-06-30T09:28:52.655Z,10.5
2018-06-30T09:29:53.336Z,10.5
2018-06-30T09:30:54.020Z,10.4
2018-06-30T09:31:54.701Z,10.3
2018-06-30T09:32:55.383Z,10.1
2018-06-30T09:33:56.065Z,10.1
2018-06-30T09:34:56.745Z,10.2
2018-06-30T09:35:57.427Z,9.8
2018-06-30T09:36:58.160Z,10.4
2018-06-30T09:37:58.877Z,11.0
2018-06-30T09:38:59.521Z,11.1
2018-06-30T09:40:00.204Z,10.9
2018-06-30T09:41:00.936Z,11.0
2018-06-30T09:42:01.619Z,11.7
2018-06-30T09:43:02.356Z,11.4
2018-06-30T09:44:03.081Z,11.7
2018-06-30T09:45:03.765Z,11.7
2018-06-30T09:47:19.964Z,11.5
2018-06-30T09:48:20.691Z,11.1
2018-06-30T09:49:21.374Z,10.9
2018-06-30T09:50:22.106Z,10.9
2018-06-30T09:51:22.788Z,11.0
2018-06-30T09:52:23.473Z,11.0
2018-06-30T09:53:24.155Z,10.7
2018-06-30T09:54:24.842Z,11.0
2018-06-30T09:55:25.617Z,11.3
2018-06-30T09:56:26.299Z,10.9
2018-06-30T09:57:26.984Z,10.9
2018-06-30T09:58:27.667Z,10.7
2018-06-30T09:59:28.347Z,10.3
2018-06-30T10:00:29.158Z,11.0
2018-06-30T10:01:29.762Z,10.7
2018-06-30T10:02:30.444Z,11.3
2018-06-30T10:03:31.127Z,11.2
2018-06-30T10:04:31.859Z,12.1
2018-06-30T10:05:32.591Z,11.3
2018-06-30T10:06:33.272Z,11.8
2018-06-30T10:07:33.952Z,11.2
2018-06-30T10:08:34.634Z,11.2
2018-06-30T10:09:35.317Z,11.7
2018-06-30T10:10:35.999Z,11.4
2018-06-30T10:11:36.680Z,12.0
2018-06-30T10:12:37.481Z,12.3
2018-06-30T10:13:38.097Z,12.6
2018-06-30T10:14:38.776Z,12.7
2018-06-30T10:15:39.507Z,12.4
2018-06-30T10:16:40.188Z,12.5
2018-06-30T10:17:40.934Z,12.5
2018-06-30T10:18:41.601Z,12.8
2018-06-30T10:19:42.282Z,13.0
2018-06-30T10:20:42.964Z,13.2
2018-06-30T10:21:43.692Z,13.0
2018-06-30T10:22:44.423Z,13.2
2018-06-30T10:23:45.104Z,13.0
2018-06-30T10:24:45.838Z,13.8
2018-06-30T10:25:46.519Z,13.9
2018-06-30T10:26:47.252Z,14.3
2018-06-30T10:27:47.932Z,14.5
2018-06-30T10:28:48.613Z,13.9
2018-06-30T10:29:49.347Z,14.1
2018-06-30T10:30:50.028Z,14.4
2018-06-30T10:31:50.712Z,14.3
2018-06-30T10:32:51.394Z,14.4
2018-06-30T10:33:52.124Z,14.4
2018-06-30T10:34:52.806Z,14.2
2018-06-30T10:35:53.536Z,14.5
2018-06-30T10:36:54.269Z,14.8
2018-06-30T10:37:54.995Z,15.7
2018-06-30T10:38:55.676Z,15.7
2018-06-30T10:39:56.410Z,16.4
2018-06-30T10:40:57.142Z,16.6
2018-06-30T10:41:57.821Z,16.5
2018-06-30T10:42:58.504Z,16.6
2018-06-30T10:43:59.234Z,17.5
2018-06-30T10:44:59.916Z,17.7
2018-06-30T10:46:00.646Z,17.6
2018-06-30T10:47:01.328Z,17.4
2018-06-30T10:48:02.015Z,16.6
2018-06-30T10:49:02.689Z,16.2
2018-06-30T10:50:03.404Z,16.4
2018-06-30T10:51:04.147Z,16.8
2018-06-30T10:52:04.829Z,16.7
2018-06-30T10:53:05.511Z,16.7
2018-06-30T10:54:06.191Z,16.8
2018-06-30T10:55:06.918Z,16.8
2018-06-30T10:56:07.647Z,17.3
2018-06-30T10:57:08.330Z,17.3
2018-06-30T10:58:09.011Z,17.9
2018-06-30T10:59:09.692Z,18.2
2018-06-30T11:00:10.404Z,18.9
2018-06-30T11:01:11.105Z,18.8
2018-06-30T11:02:11.781Z,18.9
2018-06-30T11:03:12.512Z,19.0
2018-06-30T11:04:13.247Z,18.2
2018-06-30T11:05:13.900Z,18.8
2018-06-30T11:06:14.550Z,18.6
2018-06-30T11:07:15.279Z,18.6
2018-06-30T11:08:15.958Z,18.3
2018-06-30T11:09:16.639Z,19.0
2018-06-30T11:10:17.319Z,19.2
2018-06-30T11:11:18.001Z,18.4
2018-06-30T11:12:18.730Z,18.8
2018-06-30T11:13:19.459Z,18.7
2018-06-30T11:14:20.141Z,18.4
2018-06-30T11:15:20.823Z,18.0
2018-06-30T11:16:21.502Z,18.0
2018-06-30T11:17:22.182Z,18.2
2018-06-30T11:18:22.910Z,17.8
2018-06-30T11:19:23.589Z,17.5
2018-06-30T11:20:24.271Z,17.9
2018-06-30T11:21:24.997Z,17.7
2018-06-30T11:22:25.742Z,18.2
2018-06-30T11:23:26.408Z,18.7
2018-06-30T11:24:27.084Z,18.3
2018-06-30T11:25:27.764Z,18.2
2018-06-30T11:26:28.443Z,18.5
2018-06-30T11:27:29.126Z,18.4
2018-06-30T11:28:29.850Z,18.3
2018-06-30T11:29:30.578Z,18.3
2018-06-30T11:30:31.206Z,19.0
2018-06-30T11:31:31.887Z,19.6
2018-06-30T11:32:32.561Z,19.8
2018-06-30T11:33:33.292Z,19.5
2018-06-30T11:34:33.971Z,20.5
2018-06-30T11:35:34.650Z,20.4
2018-06-30T11:36:35.330Z,19.8
2018-06-30T11:37:36.010Z,20.5
2018-06-30T11:38:36.687Z,19.7
2018-06-30T11:39:37.367Z,19.8
2018-06-30T11:40:38.123Z,19.6
2018-06-30T11:41:38.816Z,19.7
2018-06-30T11:42:39.496Z,19.5
2018-06-30T11:43:40.174Z,20.0
2018-06-30T11:44:40.954Z,20.1
2018-06-30T11:45:41.726Z,19.7
2018-06-30T11:46:42.405Z,19.6
2018-06-30T11:47:43.082Z,19.7
2018-06-30T11:48:43.761Z,19.3
2018-06-30T11:49:44.442Z,19.1
2018-06-30T11:50:45.172Z,19.0
2018-06-30T11:51:45.850Z,18.9
2018-06-30T11:52:46.529Z,19.1
2018-06-30T11:53:47.207Z,19.5
2018-06-30T11:54:47.884Z,19.8
2018-06-30T11:55:48.617Z,19.7
2018-06-30T11:56:49.293Z,19.6
2018-06-30T11:57:49.971Z,19.6
2018-06-30T11:58:50.649Z,19.7
2018-06-30T11:59:51.328Z,19.5
2018-06-30T12:00:52.056Z,20.4
2018-06-30T12:01:52.735Z,19.7
2018-06-30T12:02:53.415Z,19.5
2018-06-30T12:03:54.092Z,19.1
2018-06-30T12:04:54.770Z,19.0
2018-06-30T12:05:55.450Z,19.0
2018-06-30T12:06:56.129Z,19.1
2018-06-30T12:07:56.807Z,19.1
2018-06-30T12:08:57.485Z,19.5
2018-06-30T12:09:58.219Z,18.2
2018-06-30T12:10:58.893Z,17.6
2018-06-30T12:11:59.572Z,17.1
2018-06-30T12:13:00.249Z,16.9
2018-06-30T12:14:00.929Z,17.4
2018-06-30T12:15:01.656Z,17.4
2018-06-30T12:16:02.337Z,18.0
2018-06-30T12:17:03.013Z,18.3
2018-06-30T12:18:03.741Z,18.3
2018-06-30T12:19:04.471Z,18.4
2018-06-30T12:20:05.147Z,18.8
2018-06-30T12:21:05.875Z,19.1
2018-06-30T12:22:06.551Z,19.3
2018-06-30T12:23:07.230Z,19.5
2018-06-30T12:24:07.959Z,19.5
2018-06-30T12:25:08.687Z,19.5
2018-06-30T12:26:09.366Z,18.8
2018-06-30T12:27:10.045Z,18.8
2018-06-30T12:28:10.723Z,18.9
2018-06-30T12:29:11.452Z,18.8
2018-06-30T12:30:12.130Z,19.1
2018-06-30T12:31:12.807Z,19.5
2018-06-30T12:32:13.554Z,19.4
2018-06-30T12:33:14.219Z,19.2
2018-06-30T12:34:14.942Z,19.0
2018-06-30T12:35:15.618Z,18.9
2018-06-30T12:36:16.296Z,18.8
2018-06-30T12:37:17.021Z,19.1
2018-06-30T12:38:17.701Z,19.0
2018-06-30T12:39:18.380Z,19.0
2018-06-30T12:40:19.057Z,19.5
2018-06-30T12:41:21.788Z,19.6
2018-06-30T12:42:22.465Z,19.6
2018-06-30T12:43:23.144Z,18.8
2018-06-30T12:44:23.822Z,19.2
2018-06-30T12:45:24.507Z,19.4
2018-06-30T12:46:25.181Z,19.1
2018-06-30T12:47:25.858Z,19.1
2018-06-30T12:48:26.587Z,19.4
2018-06-30T12:49:27.265Z,19.5
2018-06-30T12:50:27.992Z,19.7
2018-06-30T12:51:28.673Z,19.5
2018-06-30T12:52:29.351Z,18.8
2018-06-30T12:53:30.030Z,19.1
2018-06-30T12:54:30.833Z,19.7
2018-06-30T12:55:31.439Z,19.8
2018-06-30T12:56:32.117Z,20.0
2018-06-30T12:57:32.796Z,19.6
2018-06-30T12:58:33.474Z,19.8
2018-06-30T12:59:34.151Z,20.3
2018-06-30T13:00:34.881Z,20.4
2018-06-30T13:01:35.558Z,20.7
2018-06-30T13:02:36.237Z,20.7
2018-06-30T13:03:36.915Z,19.9
2018-06-30T13:04:37.594Z,20.2
2018-06-30T13:05:38.272Z,20.0
2018-06-30T13:06:38.953Z,20.0
2018-06-30T13:07:39.631Z,19.7
2018-06-30T13:08:40.357Z,19.6
2018-06-30T13:09:41.087Z,19.6
2018-06-30T13:10:41.765Z,20.6
2018-06-30T13:11:42.494Z,20.0
2018-06-30T13:12:43.172Z,20.0
2018-06-30T13:13:43.849Z,20.3
2018-06-30T13:14:44.528Z,19.9
2018-06-30T13:15:45.208Z,19.9
2018-06-30T13:16:45.935Z,19.7
2018-06-30T13:17:46.677Z,20.2
2018-06-30T13:18:47.290Z,19.9
2018-06-30T13:19:47.969Z,20.2
2018-06-30T13:20:48.649Z,20.5
2018-06-30T13:21:49.375Z,20.3
2018-06-30T13:22:50.051Z,20.6
2018-06-30T13:23:50.732Z,20.2
2018-06-30T13:24:51.409Z,20.4
2018-06-30T13:25:52.087Z,20.6
2018-06-30T13:26:52.814Z,20.5
2018-06-30T13:27:53.543Z,21.0
2018-06-30T13:28:54.221Z,21.3
2018-06-30T13:29:54.900Z,20.8
2018-06-30T13:30:55.577Z,21.1